Gala Trio — 3FCR8 — position and weather

sailwx.info

Track history (hours):
 
Tides and Currents Weather Stations Pressure Air Temp Water Temp Dewpoint Dewpoint Depression Visibility Wind Speed Wind Dir Waves Ship Positions

Gala Trio

Last reported at 2018-Jan-11 17:40 UTC. Time now 2018-Jan-20 23:14 UTC.
Position N 37°03' E 027°03'.
Warning: this ship's position is 9 days out of date.

Length 82 m; draft 3.3 m.

Type: Ship. MMSI: 351300000.

Date/timePositionNaut miles runAvg speedWind from/ knotsBaromVisibWave heightAir tempDewpointWater temp
2018-Jan-11 17:40N 37°03' E 027°03'20 8.7
2018-Jan-11 15:20N 37°20' E 026°50'3 8.6
2018-Jan-11 14:58N 37°23' E 026°48'4 8.9
2018-Jan-11 14:29N 37°26' E 026°45'14 8.2
2018-Jan-11 12:44N 37°38' E 026°35'11 8.5
2018-Jan-11 11:27N 37°48' E 026°29'  
2018-Jan-05 19:11N 45°15' E 036°28'2 7.3
2018-Jan-05 18:58N 45°16' E 036°28'4 7.8
2018-Jan-05 18:30N 45°19' E 036°32'4 8.9
2018-Jan-05 18:00N 45°21' E 036°38'4 7.4
2018-Jan-05 17:30N 45°24' E 036°40'3 6.0
2018-Jan-05 17:00N 45°27' E 036°39'2 0.5
2018-Jan-05 12:31N 45°28' E 036°37'0 0.0
2018-Jan-05 12:19N 45°28' E 036°37'0 0.0
2018-Jan-05 11:58N 45°28' E 036°37'0 0.0
2018-Jan-05 11:28N 45°28' E 036°37'0 0.0
2018-Jan-05 10:58N 45°28' E 036°37'0 0.0
2018-Jan-05 05:01N 45°28' E 036°37'0 0.0
2018-Jan-04 23:55N 45°28' E 036°37'0 0.0
2018-Jan-04 20:25N 45°28' E 036°37'1 0.2
2018-Jan-04 14:58N 45°29' E 036°37'3 7.2
2018-Jan-04 14:30N 45°30' E 036°41'  
Track history (hours):
 
Tides and Currents Weather Stations Pressure Air Temp Water Temp Dewpoint Dewpoint Depression Visibility Wind Speed Wind Dir Waves Ship Positions

Gala Trio

Last reported at 2018-Jan-11 17:40 UTC. Time now 2018-Jan-20 23:14 UTC.
Position N 37°03' E 027°03'.
Warning: this ship's position is 9 days out of date.

Length 82 m; draft 3.3 m.

Type: Ship. MMSI: 351300000.

Date/timePositionNaut miles runAvg speedWind from/ knotsBaromVisibWave heightAir tempDewpointWater temp
2018-Jan-11 17:40N 37°03' E 027°03'20 8.7
2018-Jan-11 15:20N 37°20' E 026°50'3 8.6
2018-Jan-11 14:58N 37°23' E 026°48'4 8.9
2018-Jan-11 14:29N 37°26' E 026°45'14 8.2
2018-Jan-11 12:44N 37°38' E 026°35'11 8.5
2018-Jan-11 11:27N 37°48' E 026°29'  
2018-Jan-05 19:11N 45°15' E 036°28'2 7.3
2018-Jan-05 18:58N 45°16' E 036°28'4 7.8
2018-Jan-05 18:30N 45°19' E 036°32'4 8.9
2018-Jan-05 18:00N 45°21' E 036°38'4 7.4
2018-Jan-05 17:30N 45°24' E 036°40'3 6.0
2018-Jan-05 17:00N 45°27' E 036°39'2 0.5
2018-Jan-05 12:31N 45°28' E 036°37'0 0.0
2018-Jan-05 12:19N 45°28' E 036°37'0 0.0
2018-Jan-05 11:58N 45°28' E 036°37'0 0.0
2018-Jan-05 11:28N 45°28' E 036°37'0 0.0
2018-Jan-05 10:58N 45°28' E 036°37'0 0.0
2018-Jan-05 05:01N 45°28' E 036°37'0 0.0
2018-Jan-04 23:55N 45°28' E 036°37'0 0.0
2018-Jan-04 20:25N 45°28' E 036°37'1 0.2
2018-Jan-04 14:58N 45°29' E 036°37'3 7.2
2018-Jan-04 14:30N 45°30' E 036°41'  

Dump ship's entire track history